Terminal Aerodrome Forecast
Issued by NWS Sterling, VA

Current Version | Previous Version | Graphics & Text | Print | Product List | Glossary On
Versions: 1 2 3 4 5 6 7 8 9 10 11 12 13 14 15 16 17 18 19 20 21 22 23 24 25 26 27 28 29 30
680
FTUS41 KLWX 291728
TAFIAD
TAF
KIAD 291728Z 2918/3024 35007KT P6SM FEW250
     FM300300 03006KT P6SM SCT250
     FM300900 02004KT P6SM BKN100
     FM301400 08004KT P6SM BKN080
     FM301800 14005KT P6SM OVC080
     FM302100 15007KT P6SM OVC025=

USA.gov is the U.S. government's official web portal to all federal, state and local government web resources and services.